createdAt,value
2023-04-23T00:01:26.987Z,53.80
2023-04-23T00:04:22.498Z,51.10
2023-04-23T00:07:16.426Z,50.30
2023-04-23T00:10:12.087Z,49.10
2023-04-23T00:12:59.105Z,55.70
2023-04-23T00:15:52.732Z,49.80
2023-04-23T00:18:45.641Z,52.00
2023-04-23T00:21:31.934Z,53.20
2023-04-23T00:24:13.626Z,52.40
2023-04-23T00:27:05.888Z,53.50
2023-04-23T00:29:59.060Z,58.10
2023-04-23T00:32:42.733Z,56.90
2023-04-23T00:35:35.429Z,56.20
2023-04-23T00:38:28.439Z,56.20
2023-04-23T00:41:12.732Z,60.00
2023-04-23T00:43:54.412Z,53.30
2023-04-23T00:46:46.482Z,52.40
2023-04-23T00:49:40.220Z,63.80
2023-04-23T00:52:33.680Z,56.50
2023-04-23T00:55:25.758Z,60.60
2023-04-23T00:58:18.759Z,63.70
2023-04-23T01:00:53.788Z,60.70
2023-04-23T01:04:07.224Z,61.20
2023-04-23T01:07:03.182Z,62.50
2023-04-23T01:09:56.972Z,61.40
2023-04-23T01:12:50.098Z,59.60
2023-04-23T01:15:27.576Z,65.30
2023-04-23T01:18:20.375Z,64.30
2023-04-23T01:21:16.223Z,57.70
2023-04-23T01:24:08.910Z,56.60
2023-04-23T01:27:03.943Z,57.10
2023-04-23T01:29:57.135Z,68.40
2023-04-23T01:32:51.853Z,59.00
2023-04-23T01:35:45.610Z,63.70
2023-04-23T01:38:46.177Z,56.40
2023-04-23T01:41:39.099Z,61.90
2023-04-23T01:44:26.666Z,59.00
2023-04-23T01:47:19.559Z,59.10
2023-04-23T01:50:14.665Z,56.70
2023-04-23T01:53:07.365Z,58.50
2023-04-23T01:56:01.920Z,60.30
2023-04-23T01:58:54.742Z,60.00
2023-04-23T02:01:48.218Z,60.50
2023-04-23T02:04:34.258Z,60.50
2023-04-23T02:07:21.148Z,57.30
2023-04-23T02:10:14.994Z,57.10
2023-04-23T02:13:08.386Z,61.00
2023-04-23T02:15:59.992Z,59.10
2023-04-23T02:18:52.941Z,58.60
2023-04-23T02:21:45.332Z,58.70
2023-04-23T02:24:31.418Z,60.80
2023-04-23T02:27:13.177Z,56.00
2023-04-23T02:30:08.530Z,57.50
2023-04-23T02:33:01.549Z,60.20
2023-04-23T02:35:54.565Z,58.50
2023-04-23T02:39:11.264Z,56.90
2023-04-23T02:41:56.882Z,58.50
2023-04-23T02:44:49.775Z,54.10
2023-04-23T02:47:42.617Z,56.10
2023-04-23T02:50:45.649Z,52.50
2023-04-23T02:53:20.899Z,56.60
2023-04-23T02:56:03.643Z,56.20
2023-04-23T02:58:56.346Z,55.70
2023-04-23T03:01:49.530Z,59.40
2023-04-23T03:04:42.876Z,57.00
2023-04-23T03:07:35.925Z,56.20
2023-04-23T03:10:27.590Z,57.10
2023-04-23T03:13:20.603Z,53.20
2023-04-23T03:16:13.612Z,54.90
2023-04-23T03:19:07.608Z,57.10
2023-04-23T03:21:51.159Z,55.30
2023-04-23T03:24:26.404Z,51.80
2023-04-23T03:26:58.959Z,53.60
2023-04-23T03:29:34.201Z,56.10
2023-04-23T03:32:27.010Z,52.20
2023-04-23T03:35:10.862Z,55.20
2023-04-23T03:38:03.513Z,56.70
2023-04-23T03:40:56.202Z,51.80
2023-04-23T03:43:49.042Z,53.50
2023-04-23T03:46:41.823Z,56.10
2023-04-23T03:49:36.719Z,55.80
2023-04-23T03:52:29.867Z,57.40
2023-04-23T03:55:09.569Z,56.70
2023-04-23T03:57:47.293Z,50.80
2023-04-23T04:00:47.376Z,56.10
2023-04-23T04:03:41.100Z,53.00
2023-04-23T04:06:24.240Z,44.00
2023-04-23T04:09:17.195Z,50.90
2023-04-23T04:12:12.343Z,53.10
2023-04-23T04:15:07.619Z,49.50
2023-04-23T04:18:01.331Z,46.10
2023-04-23T04:20:45.955Z,51.90
2023-04-23T04:23:29.253Z,54.00
2023-04-23T04:26:22.072Z,49.30
2023-04-23T04:29:15.199Z,51.90
2023-04-23T04:32:08.473Z,50.00
2023-04-23T04:35:07.009Z,49.50
2023-04-23T04:37:54.172Z,53.00
2023-04-23T04:40:46.951Z,48.40
2023-04-23T04:43:19.476Z,53.70
2023-04-23T04:46:13.026Z,50.10
2023-04-23T04:48:59.208Z,55.60
2023-04-23T04:51:43.669Z,50.00
2023-04-23T04:54:37.745Z,51.40
2023-04-23T04:57:30.641Z,53.80
2023-04-23T05:00:31.062Z,51.20
2023-04-23T05:03:17.039Z,48.50
2023-04-23T05:06:14.832Z,51.60
2023-04-23T05:09:05.269Z,52.90
2023-04-23T05:11:59.178Z,46.90
2023-04-23T05:14:53.047Z,44.30
2023-04-23T05:19:07.556Z,44.90
2023-04-23T05:21:03.128Z,45.20
2023-04-23T05:23:55.199Z,42.40
2023-04-23T05:29:25.859Z,39.10
2023-04-23T05:32:12.271Z,39.40
2023-04-23T05:35:08.589Z,43.20
2023-04-23T05:38:02.821Z,37.00
2023-04-23T05:40:51.575Z,37.30
2023-04-23T05:43:27.739Z,39.80
2023-04-23T05:46:20.610Z,35.00
2023-04-23T05:49:13.260Z,34.70
2023-04-23T05:51:59.649Z,36.30
2023-04-23T05:54:52.905Z,36.30
2023-04-23T05:57:34.751Z,31.40
2023-04-23T06:00:20.000Z,28.80
2023-04-23T06:02:57.648Z,30.70
2023-04-23T06:05:50.873Z,27.90
2023-04-23T06:08:43.571Z,31.70
2023-04-23T06:11:36.675Z,24.50
2023-04-23T06:14:29.982Z,25.00
2023-04-23T06:17:22.758Z,22.40
2023-04-23T06:20:02.162Z,23.00
2023-04-23T06:22:42.711Z,21.20
2023-04-23T06:25:14.930Z,19.40
2023-04-23T06:27:47.487Z,19.10
2023-04-23T06:30:26.412Z,21.00
2023-04-23T06:32:58.986Z,18.70
2023-04-23T06:35:31.750Z,18.80
2023-04-23T06:38:04.443Z,15.60
2023-04-23T06:40:38.431Z,13.60
2023-04-23T06:43:12.455Z,15.10
2023-04-23T06:46:05.691Z,13.20
2023-04-23T06:48:39.980Z,10.80
2023-04-23T06:51:13.581Z,14.40
2023-04-23T06:53:46.402Z,9.70
2023-04-23T06:56:19.216Z,11.40
2023-04-23T06:58:51.825Z,12.60
2023-04-23T07:01:26.116Z,10.00
2023-04-23T07:03:59.130Z,8.70
2023-04-23T07:06:34.318Z,8.40
2023-04-23T07:09:09.419Z,8.70
2023-04-23T07:11:42.229Z,8.00
2023-04-23T07:14:14.969Z,7.00
2023-04-23T07:16:47.651Z,8.10
2023-04-23T07:19:20.710Z,8.90
2023-04-23T07:21:54.682Z,7.70
2023-04-23T07:24:27.730Z,7.10
2023-04-23T07:27:00.107Z,9.20
2023-04-23T07:29:32.740Z,8.20
2023-04-23T07:32:05.875Z,7.70
2023-04-23T07:34:38.370Z,8.80
2023-04-23T07:37:10.728Z,8.90
2023-04-23T07:39:44.271Z,8.80
2023-04-23T07:42:17.111Z,8.10
2023-04-23T07:44:49.590Z,8.60
2023-04-23T07:47:22.072Z,7.20
2023-04-23T07:49:54.987Z,8.10
2023-04-23T07:52:27.912Z,8.60
2023-04-23T07:55:00.362Z,8.50
2023-04-23T07:57:32.936Z,7.70
2023-04-23T08:00:09.529Z,7.60
2023-04-23T08:02:45.966Z,8.20
2023-04-23T08:05:18.769Z,9.80
2023-04-23T08:07:51.467Z,7.70
2023-04-23T08:10:23.987Z,9.40
2023-04-23T08:13:01.619Z,7.00
2023-04-23T08:15:39.162Z,6.90
2023-04-23T08:18:31.957Z,9.70
2023-04-23T08:21:12.987Z,7.70
2023-04-23T08:23:48.687Z,8.50
2023-04-23T08:26:32.831Z,8.50
2023-04-23T08:29:16.476Z,8.10
2023-04-23T08:31:58.361Z,9.40
2023-04-23T08:34:30.940Z,8.70
2023-04-23T08:37:05.336Z,7.60
2023-04-23T08:39:58.085Z,7.30
2023-04-23T08:42:38.977Z,7.90
2023-04-23T08:45:27.222Z,8.60
2023-04-23T08:48:04.280Z,8.10
2023-04-23T08:50:38.645Z,9.20
2023-04-23T08:53:19.724Z,8.70
2023-04-23T08:55:53.096Z,7.90
2023-04-23T08:58:28.247Z,7.50
2023-04-23T09:01:01.037Z,8.00
2023-04-23T09:03:45.804Z,8.10
2023-04-23T09:06:18.724Z,9.90
2023-04-23T09:08:51.710Z,8.30
2023-04-23T09:11:28.461Z,8.10
2023-04-23T09:14:01.245Z,8.20
2023-04-23T09:16:34.161Z,7.20
2023-04-23T09:19:12.907Z,9.70
2023-04-23T09:21:51.405Z,8.00
2023-04-23T09:24:28.273Z,8.40
2023-04-23T09:27:01.227Z,7.30
2023-04-23T09:29:49.006Z,7.50
2023-04-23T09:32:34.491Z,6.80
2023-04-23T09:35:08.627Z,8.30
2023-04-23T09:37:45.085Z,7.60
2023-04-23T09:40:21.307Z,9.80
2023-04-23T09:43:06.105Z,7.70
2023-04-23T09:45:52.976Z,8.00
2023-04-23T09:48:25.251Z,11.30
2023-04-23T09:50:58.199Z,8.20
2023-04-23T09:53:45.963Z,8.10
2023-04-23T09:56:21.109Z,7.30
2023-04-23T09:58:54.498Z,8.20
2023-04-23T10:01:32.190Z,11.20
2023-04-23T10:04:05.593Z,7.70
2023-04-23T10:06:47.086Z,9.40
2023-04-23T10:09:31.137Z,7.40
2023-04-23T10:12:09.691Z,8.70
2023-04-23T10:14:49.527Z,9.70
2023-04-23T10:17:22.152Z,7.50
2023-04-23T10:20:02.419Z,8.00
2023-04-23T10:22:37.149Z,7.70
2023-04-23T10:25:13.347Z,7.80
2023-04-23T10:27:54.389Z,10.50
2023-04-23T10:30:31.626Z,9.20
2023-04-23T10:33:13.096Z,7.00
2023-04-23T10:35:52.196Z,10.90
2023-04-23T10:38:25.269Z,10.10
2023-04-23T10:41:00.145Z,7.20
2023-04-23T10:43:44.690Z,6.60
2023-04-23T10:46:39.196Z,7.30
2023-04-23T10:49:16.880Z,6.60
2023-04-23T10:54:37.121Z,7.20
2023-04-23T10:57:12.213Z,7.60
2023-04-23T10:59:54.754Z,6.30
2023-04-23T11:02:27.899Z,7.20
2023-04-23T11:05:07.241Z,7.20
2023-04-23T11:07:40.927Z,7.20
2023-04-23T11:10:17.140Z,8.40
2023-04-23T11:12:50.062Z,7.60
2023-04-23T11:15:23.711Z,8.60
2023-04-23T11:18:05.999Z,9.30
2023-04-23T11:20:38.761Z,7.40
2023-04-23T11:23:33.822Z,10.10
2023-04-23T11:26:10.154Z,7.60
2023-04-23T11:28:44.739Z,8.10
2023-04-23T11:31:18.230Z,7.70
2023-04-23T11:33:50.930Z,7.30
2023-04-23T11:36:27.712Z,7.20
2023-04-23T11:39:03.103Z,7.80
2023-04-23T11:41:46.815Z,8.90
2023-04-23T11:44:19.998Z,7.70
2023-04-23T11:46:57.113Z,7.10
2023-04-23T11:49:33.151Z,22.30
2023-04-23T11:52:06.375Z,9.20
2023-04-23T11:54:41.293Z,7.30
2023-04-23T11:57:14.690Z,7.50
2023-04-23T11:59:48.997Z,6.90
2023-04-23T12:02:26.271Z,7.10
2023-04-23T12:04:59.043Z,6.20
2023-04-23T12:07:36.331Z,8.30
2023-04-23T12:10:11.394Z,95.50
2023-04-23T12:12:43.869Z,28.60
2023-04-23T12:15:16.709Z,99.70
2023-04-23T12:18:09.600Z,21.30
2023-04-23T12:20:42.877Z,23.20
2023-04-23T12:23:15.955Z,9.80
2023-04-23T12:25:48.667Z,17.80
2023-04-23T12:28:25.926Z,12.00
2023-04-23T12:31:03.124Z,10.70
2023-04-23T12:33:35.932Z,7.90
2023-04-23T12:36:17.154Z,15.00
2023-04-23T12:38:49.390Z,7.40
2023-04-23T12:41:24.744Z,17.40
2023-04-23T12:43:57.417Z,7.70
2023-04-23T12:46:29.996Z,8.60
2023-04-23T12:49:02.348Z,7.00
2023-04-23T12:51:35.346Z,6.90
2023-04-23T12:54:09.249Z,7.90
2023-04-23T12:56:41.836Z,9.30
2023-04-23T12:59:14.118Z,7.20
2023-04-23T13:01:46.748Z,7.00
2023-04-23T13:04:19.385Z,7.00
2023-04-23T13:06:52.256Z,6.90
2023-04-23T13:09:39.517Z,7.30
2023-04-23T13:12:12.135Z,5.70
2023-04-23T13:14:44.626Z,8.50
2023-04-23T13:17:17.778Z,7.50
2023-04-23T13:19:50.167Z,6.50
2023-04-23T13:22:22.740Z,8.20
2023-04-23T13:24:57.771Z,8.80
2023-04-23T13:27:31.279Z,7.00
2023-04-23T13:30:04.566Z,8.90
2023-04-23T13:32:37.191Z,6.80
2023-04-23T13:35:11.346Z,8.40
2023-04-23T13:37:43.838Z,7.40
2023-04-23T13:40:18.391Z,7.50
2023-04-23T13:42:55.098Z,7.30
2023-04-23T13:45:28.527Z,8.60
2023-04-23T13:48:02.589Z,7.60
2023-04-23T13:50:38.431Z,6.30
2023-04-23T13:53:13.665Z,7.60
2023-04-23T13:55:46.127Z,6.80
2023-04-23T13:58:19.162Z,7.90
2023-04-23T14:00:52.066Z,7.40
2023-04-23T14:03:24.803Z,7.50
2023-04-23T14:05:57.553Z,9.40
2023-04-23T14:08:30.036Z,8.40
2023-04-23T14:11:02.398Z,7.20
2023-04-23T14:13:35.444Z,6.60
2023-04-23T14:16:09.069Z,7.80
2023-04-23T14:18:44.185Z,8.20
2023-04-23T14:21:18.216Z,8.50
2023-04-23T14:23:56.980Z,8.80
2023-04-23T14:26:48.140Z,6.40
2023-04-23T14:29:30.669Z,8.00
2023-04-23T14:32:03.270Z,7.80
2023-04-23T14:34:36.404Z,6.80
2023-04-23T14:37:09.088Z,7.10
2023-04-23T14:39:42.297Z,7.50
2023-04-23T14:42:14.980Z,10.10
2023-04-23T14:44:50.405Z,9.40
2023-04-23T14:47:22.794Z,6.60
2023-04-23T14:49:57.678Z,10.00
2023-04-23T14:52:31.629Z,7.70
2023-04-23T14:55:04.233Z,8.40
2023-04-23T14:57:39.045Z,8.30
2023-04-23T15:00:15.524Z,10.10
2023-04-23T15:02:51.267Z,7.70
2023-04-23T15:05:25.491Z,6.40
2023-04-23T15:07:59.598Z,6.10
2023-04-23T15:10:32.749Z,7.40
2023-04-23T15:13:15.753Z,6.60
2023-04-23T15:15:56.913Z,6.70
2023-04-23T15:18:33.897Z,7.10
2023-04-23T15:21:07.176Z,8.20
2023-04-23T15:23:41.585Z,6.10
2023-04-23T15:26:14.025Z,7.40
2023-04-23T15:28:46.841Z,7.60
2023-04-23T15:31:19.662Z,6.50
2023-04-23T15:33:52.262Z,7.60
2023-04-23T15:36:24.965Z,7.80
2023-04-23T15:38:57.830Z,6.20
2023-04-23T15:41:33.166Z,7.90
2023-04-23T15:44:06.393Z,7.50
2023-04-23T15:46:38.801Z,9.00
2023-04-23T15:49:11.719Z,7.20
2023-04-23T15:51:44.732Z,8.10
2023-04-23T15:54:19.121Z,7.30
2023-04-23T15:56:51.609Z,7.20
2023-04-23T15:59:24.062Z,6.40
2023-04-23T16:01:56.479Z,7.70
2023-04-23T16:04:29.522Z,6.20
2023-04-23T16:07:04.861Z,7.10
2023-04-23T16:09:37.589Z,9.30
2023-04-23T16:12:10.684Z,7.60
2023-04-23T16:14:43.839Z,8.90
2023-04-23T16:17:16.699Z,9.40
2023-04-23T16:19:50.722Z,8.50
2023-04-23T16:22:23.351Z,6.20
2023-04-23T16:24:55.933Z,8.10
2023-04-23T16:27:28.355Z,6.40
2023-04-23T16:30:00.982Z,8.70
2023-04-23T16:32:36.695Z,7.00
2023-04-23T16:35:10.478Z,7.90
2023-04-23T16:37:42.918Z,7.00
2023-04-23T16:40:16.396Z,6.80
2023-04-23T16:42:49.136Z,7.50
2023-04-23T16:45:24.028Z,8.10
2023-04-23T16:47:56.786Z,7.70
2023-04-23T16:50:29.407Z,6.10
2023-04-23T16:53:02.680Z,6.00
2023-04-23T16:55:35.436Z,7.50
2023-04-23T16:58:10.043Z,7.90
2023-04-23T17:00:45.051Z,6.10
2023-04-23T17:03:17.995Z,7.00
2023-04-23T17:06:02.854Z,7.90
2023-04-23T17:08:36.934Z,7.60
2023-04-23T17:11:10.092Z,7.40
2023-04-23T17:13:44.330Z,6.50
2023-04-23T17:16:17.091Z,9.10
2023-04-23T17:18:51.988Z,9.50
2023-04-23T17:21:24.733Z,6.70
2023-04-23T17:23:57.509Z,8.50
2023-04-23T17:26:30.169Z,7.60
2023-04-23T17:29:02.913Z,8.30
2023-04-23T17:31:37.712Z,9.20
2023-04-23T17:34:11.400Z,9.30
2023-04-23T17:36:43.857Z,8.80
2023-04-23T17:39:19.980Z,9.20
2023-04-23T17:41:53.157Z,10.40
2023-04-23T17:44:33.230Z,8.20
2023-04-23T17:47:06.008Z,8.80
2023-04-23T17:49:42.206Z,8.90
2023-04-23T17:52:18.831Z,9.50
2023-04-23T17:54:51.578Z,10.00
2023-04-23T17:57:24.366Z,10.00
2023-04-23T17:59:59.309Z,10.00
2023-04-23T18:02:31.984Z,10.90
2023-04-23T18:05:06.292Z,9.60
2023-04-23T18:07:40.076Z,9.00
2023-04-23T18:10:13.850Z,9.20
2023-04-23T18:12:46.800Z,11.00
2023-04-23T18:15:25.943Z,10.20
2023-04-23T18:17:58.664Z,10.80
2023-04-23T18:20:37.695Z,9.40
2023-04-23T18:23:10.577Z,10.40
2023-04-23T18:25:43.608Z,9.80
2023-04-23T18:28:19.221Z,8.80
2023-04-23T18:30:56.610Z,8.70
2023-04-23T18:33:38.231Z,10.60
2023-04-23T18:36:27.362Z,9.10
2023-04-23T18:39:00.280Z,14.70
2023-04-23T18:41:33.141Z,12.40
2023-04-23T18:44:08.348Z,12.90
2023-04-23T18:46:42.291Z,15.10
2023-04-23T18:49:42.479Z,15.40
2023-04-23T18:52:15.278Z,14.40
2023-04-23T18:54:57.825Z,14.90
2023-04-23T18:57:30.545Z,14.30
2023-04-23T19:00:08.411Z,11.30
2023-04-23T19:02:44.753Z,11.60
2023-04-23T19:05:19.979Z,11.80
2023-04-23T19:07:56.385Z,11.30
2023-04-23T19:10:29.021Z,12.00
2023-04-23T19:13:23.045Z,11.90
2023-04-23T19:15:58.633Z,12.40
2023-04-23T19:18:31.622Z,13.50
2023-04-23T19:21:24.304Z,12.40
2023-04-23T19:23:59.393Z,13.20
2023-04-23T19:26:52.335Z,16.30
2023-04-23T19:29:45.968Z,12.30
2023-04-23T19:32:30.120Z,13.80
2023-04-23T19:35:15.185Z,11.50
2023-04-23T19:37:51.246Z,12.20
2023-04-23T19:40:44.469Z,11.60
2023-04-23T19:43:20.588Z,11.00
2023-04-23T19:45:56.078Z,11.30
2023-04-23T19:51:35.699Z,12.10
2023-04-23T19:54:09.082Z,12.90
2023-04-23T19:56:44.970Z,12.20
2023-04-23T19:59:20.981Z,10.70
2023-04-23T20:01:54.571Z,13.10
2023-04-23T20:04:37.769Z,11.50
2023-04-23T20:07:19.200Z,10.10
2023-04-23T20:09:51.579Z,11.40
2023-04-23T20:12:24.800Z,11.80
2023-04-23T20:15:17.462Z,11.30
2023-04-23T20:18:01.479Z,13.40
2023-04-23T20:20:36.335Z,13.80
2023-04-23T20:23:11.838Z,15.10
2023-04-23T20:26:03.668Z,16.50
2023-04-23T20:28:37.895Z,15.60
2023-04-23T20:31:10.695Z,14.20
2023-04-23T20:33:43.584Z,14.90
2023-04-23T20:36:16.349Z,13.70
2023-04-23T20:38:48.891Z,13.50
2023-04-23T20:41:25.136Z,13.60
2023-04-23T20:44:09.748Z,11.90
2023-04-23T20:47:08.473Z,13.70
2023-04-23T20:49:52.423Z,13.20
2023-04-23T20:52:24.950Z,11.30
2023-04-23T20:55:03.667Z,11.50
2023-04-23T20:57:41.911Z,12.20
2023-04-23T21:00:15.998Z,9.90
2023-04-23T21:02:49.983Z,11.50
2023-04-23T21:05:23.110Z,11.30
2023-04-23T21:08:10.074Z,16.30
2023-04-23T21:10:43.278Z,10.80
2023-04-23T21:13:37.770Z,10.20
2023-04-23T21:16:31.480Z,10.80
2023-04-23T21:19:27.303Z,11.30
2023-04-23T21:22:04.186Z,11.30
2023-04-23T21:25:20.838Z,12.20
2023-04-23T21:27:59.979Z,11.20
2023-04-23T21:30:42.559Z,10.60
2023-04-23T21:33:28.514Z,11.20
2023-04-23T21:36:09.613Z,12.30
2023-04-23T21:38:45.801Z,13.70
2023-04-23T21:41:18.668Z,12.10
2023-04-23T21:44:12.631Z,11.30
2023-04-23T21:47:07.386Z,12.00
2023-04-23T21:50:00.329Z,10.90
2023-04-23T21:52:53.531Z,9.80
2023-04-23T21:55:40.768Z,13.10
2023-04-23T21:58:25.591Z,12.10
2023-04-23T22:01:19.376Z,11.40
2023-04-23T22:04:12.963Z,11.30
2023-04-23T22:07:02.493Z,12.00
2023-04-23T22:09:44.546Z,11.10
2023-04-23T22:12:24.517Z,11.00
2023-04-23T22:15:19.017Z,11.30
2023-04-23T22:18:10.644Z,10.30
2023-04-23T22:20:49.634Z,10.10
2023-04-23T22:23:42.459Z,9.30
2023-04-23T22:26:27.909Z,10.10
2023-04-23T22:29:03.675Z,11.50
2023-04-23T22:31:53.097Z,13.10
2023-04-23T22:34:32.513Z,10.70
2023-04-23T22:37:08.856Z,11.70
2023-04-23T22:39:44.882Z,11.70
2023-04-23T22:42:17.689Z,14.60
2023-04-23T22:44:54.506Z,12.50
2023-04-23T22:47:47.539Z,11.40
2023-04-23T22:50:42.882Z,10.30
2023-04-23T22:53:35.906Z,11.30
2023-04-23T22:56:26.923Z,10.10
2023-04-23T22:59:13.695Z,11.80
2023-04-23T23:01:55.580Z,10.40
2023-04-23T23:04:42.379Z,9.80
2023-04-23T23:07:34.669Z,10.30
2023-04-23T23:10:12.574Z,11.20
2023-04-23T23:12:48.342Z,12.30
2023-04-23T23:15:24.195Z,11.10
2023-04-23T23:18:00.060Z,10.00
2023-04-23T23:20:32.563Z,9.80
2023-04-23T23:23:05.985Z,11.70
2023-04-23T23:25:43.545Z,9.90
2023-04-23T23:28:29.031Z,9.40
2023-04-23T23:31:04.557Z,10.00
2023-04-23T23:33:44.598Z,11.00
2023-04-23T23:36:17.226Z,9.20
2023-04-23T23:38:50.909Z,10.40
2023-04-23T23:41:23.709Z,10.50
2023-04-23T23:43:59.902Z,10.00
2023-04-23T23:46:32.431Z,8.80
2023-04-23T23:49:15.644Z,9.90
2023-04-23T23:51:48.828Z,9.80
2023-04-23T23:54:23.539Z,9.00
2023-04-23T23:56:59.969Z,9.80
2023-04-23T23:59:32.905Z,9.60
